Date,TemperatureHighF,TemperatureAvgF,TemperatureLowF,DewpointHighF,DewpointAvgF,DewpointLowF,HumidityHigh,HumidityAvg,HumidityLow,PressureMaxIn,PressureMinIn,WindSpeedMaxMPH,WindSpeedAvgMPH,GustSpeedMaxMPH,PrecipitationSumIn
2013-2-1,27,24,17,17,11,6,71,59,48,30.30,29.80,31,7,32,0.00
2013-2-2,22,18,13,21,12,6,95,78,62,30.33,30.02,16,3,17,0.00
2013-2-3,30,24,18,26,21,13,97,88,67,30.02,29.80,23,1,23,0.03
2013-2-4,30,24,19,22,14,10,86,67,55,30.04,29.90,21,4,23,0.00
2013-2-5,33,28,25,29,26,22,96,90,82,29.94,29.86,6,0,6,0.00
2013-2-6,37,30,24,28,25,18,99,81,64,30.34,29.92,19,2,19,0.01
2013-2-7,32,28,21,24,18,16,84,69,52,30.45,30.25,19,4,19,0.00
2013-2-8,35,33,29,34,30,23,100,92,75,30.25,29.73,22,4,22,0.06
2013-2-9,31,25,20,25,18,13,85,73,62,30.38,29.84,28,8,28,0.00
2013-2-10,38,28,14,24,16,9,86,62,35,30.48,30.24,15,3,16,0.04
2013-2-11,44,37,32,44,36,24,100,94,67,30.24,29.66,21,4,23,0.01
2013-2-12,42,38,27,32,28,24,88,67,57,29.97,29.76,24,6,24,0.00
2013-2-13,42,32,24,32,28,21,99,84,65,29.95,29.68,11,0,12,0.00
2013-2-14,45,35,30,32,30,28,100,84,59,29.98,29.73,13,1,13,0.31
2013-2-15,50,39,32,38,32,28,99,78,54,30.00,29.91,14,2,14,0.10
2013-2-16,33,30,27,32,26,16,100,85,62,29.98,29.81,16,1,16,0.01
2013-2-17,28,24,19,19,11,4,81,58,44,30.13,29.79,29,9,32,0.00
2013-2-18,36,26,17,20,12,6,70,57,37,30.33,30.12,24,5,24,0.00
2013-2-19,39,34,29,38,29,20,98,82,61,30.15,29.69,23,5,23,0.24
2013-2-20,33,26,21,21,15,10,69,62,53,30.08,29.80,26,9,32,0.00
2013-2-21,34,26,21,20,16,12,78,65,54,30.33,30.06,25,6,25,0.00
2013-2-22,32,27,20,29,22,17,89,80,69,30.38,30.22,16,3,16,0.00
2013-2-23,43,36,31,42,36,29,100,99,89,30.23,29.81,7,0,8,0.10
2013-2-24,41,36,30,38,30,22,100,81,62,30.06,29.77,22,4,23,0.00
2013-2-25,46,35,27,31,26,21,81,68,51,30.21,30.06,11,2,13,0.00
2013-2-26,41,35,26,36,30,23,99,83,68,30.23,29.71,36,8,36,0.05
2013-2-27,48,41,36,45,38,35,100,89,70,29.72,29.51,38,5,40,0.21
2013-2-28,43,38,33,36,33,30,96,81,64,29.67,29.58,10,2,18,0.00